Share

Cherburgo-Octeville, Francia

Maupertus (LFRC) Alt 453 ft | 49.65 °N, 1.46 °W | Change Station

Current weather conditions updated 20 minutes ago

Light Rain
Lluvia débil
50 ° F
Sensación térmica 50 ° F
N
9
Viento Variable Viento desde Este
Amanecer 7:04 AM
Atardecer 9:06 PM
Luna Gibosa menguante

Hoy se prevé un día Más cálido que ayer. Lluvia débil..

Presión 29.59 pul
Visibilidad 1.2 Millas
Nubes Nublado 500 ft
Punto de rocío 48 ° F
Humedad 94%
Precipitaciones 0.00 pul
Espesor de la nieve No disponible.
UV 2 de una escala de 16
Polen No disponible.
Calidad del aire No disponible.
Flu Activity No disponible.
METAR LFRC 201030Z AUTO 10008KT 1900 -RA BR OVC005 10/09 Q1002

More Conditions Fewer Conditions

Presión 29.59 pul
Visibilidad 1.2 Millas
Nubes Nublado 500 ft
Punto de rocío 48 ° F
Humedad 94%
Precipitaciones 0.00 pul
Espesor de la nieve No disponible.
UV 2 de una escala de 16
Polen No disponible.
Calidad del aire No disponible.
Flu Activity No disponible.
METAR LFRC 201030Z AUTO 10008KT 1900 -RA BR OVC005 10/09 Q1002

More Conditions Fewer Conditions

10-Day Weather Forecast

Almanac

Astronomía

Apr. 20, 2014 Salida Puesta
Hora real 7:04 AM CEST 9:06 PM CEST
Crepúsculo civil 6:29 AM CEST 9:41 PM CEST
Crepúsculo náutico 5:46 AM CEST 10:24 PM CEST
Crepúsculo astronómico 4:58 AM CEST 11:12 PM CEST
Luna 1:45 AM CEST 10:57 AM CEST
Horas de luz 15h 11m
Horas de luz
14h 02m
Tomorrow will be 3m 29s longer.
Gibosa menguante, 71% of the Moon is Illuminated
Hoy
Gibosa menguante
Abr 22
Cuarto menguante
Abr 29
Nueva
May 6
Cuarto creciente
May 14
Luna llena

Extremos de ayer

Máximos del país Bajas del país

Community

  • Easter Greetings
    Easter Greetings
  • Sunny day at the coast-Cape Arago Lighthouse
    Sunny day at the coast-Cape Arago Lighthouse
  • Cherry Blossoms
    Cherry Blossoms
  • White-Crowned Sparrow
    White-Crowned Sparrow
  • New Day
    New Day

WunderPhotos

Upload Photos

1,703,135 ¡fotos cargadas!

WunderBlogs® & News

Nearby

Calidad del aire

Not available.

Grosos de nieve

Not available.

Temperaturas de aguas costeras

Lugar Temperatura
Sin partes meteorológicos de las estaciones

Actividad de terremotos

Ciudad Distance Mag. Tiempo y dato
No hay informes recientes de la actividad sísmica.
Magnitud mínima muestra es 2,5.

Estaciones meteorológicas cercanas

No hay estaciones meteorológicas personales en esta zona.

What do you think?

We're not finished. Please let us know what you like, what you don't like, and what you are still missing.